Time;durP1;ratioP1;P1;durP2;ratioP2;P2;SDS_P1;SDS_P2;PMS_P1;PMS_P2;Temp;Humidity;BMP_temperature;BMP_pressure;BME280_temperature;BME280_humidity;BME280_pressure;Samples;Min_cycle;Max_cycle;Signal;HPM_P1;HPM_P2
2024/02/19 00:00:58;;;;;;;;;;;;;;;;;;5069001;28;19938;-76
2024/02/19 00:03:23;;;;;;;;;;;;;;;;;;5071254;28;20406;-77
2024/02/19 00:05:50;;;;;;;;;;;;;;;;;;5070587;28;20060;-76
2024/02/19 00:08:15;;;;;;;;;;;;;;;;;;5068936;28;19935;-76
2024/02/19 00:10:40;;;;;;;;;;;;;;;;;;5072446;28;20295;-76
2024/02/19 00:13:06;;;;;;;;;;;;;;;;;;5070028;28;20014;-76
2024/02/19 00:15:31;;;;;;;;;;;;;;;;;;5069046;28;19923;-76
2024/02/19 00:17:56;;;;;;;;;;;;;;;;;;5051468;28;20561;-76
2024/02/19 00:20:23;;;;;;;;;;;;;;;;;;5069769;28;19919;-76
2024/02/19 00:22:49;;;;;;;;;;;;;;;;;;5069274;28;19932;-76
2024/02/19 00:25:15;;;;;;;;;;;;;;;;;;5068498;28;19913;-76
2024/02/19 00:27:41;;;;;;;;;;;;;;;;;;5069468;28;20020;-74
2024/02/19 00:30:06;;;;;;;;;;;;;;;;;;5069768;28;20439;-74
2024/02/19 00:32:31;;;;;;;;;;;;;;;;;;5068264;28;20639;-75
2024/02/19 00:34:56;;;;;;;;;;;;;;;;;;5068913;28;19920;-75
2024/02/19 00:37:23;;;;;;;;;;;;;;;;;;5070312;28;20307;-75
2024/02/19 00:39:48;;;;;;;;;;;;;;;;;;5071114;28;19917;-74
2024/02/19 00:42:13;;;;;;;;;;;;;;;;;;5069516;28;19985;-74
2024/02/19 00:44:38;;;;;;;;;;;;;;;;;;5069416;28;20375;-74
2024/02/19 00:47:03;;;;;;;;;;;;;;;;;;5069163;28;20265;-74
2024/02/19 00:49:29;;;;;;;;;;;;;;;;;;5067099;28;20330;-75
2024/02/19 00:51:54;;;;;;;;;;;;;;;;;;5068444;28;19916;-74
2024/02/19 00:54:19;;;;;;;;;;;;;;;;;;5070171;28;19995;-74
2024/02/19 00:56:44;;;;;;;;;;;;;;;;;;5069043;28;19920;-74
2024/02/19 00:59:09;;;;;;;;;;;;;;;;;;5066448;28;19919;-74
2024/02/19 01:01:34;;;;;;;;;;;;;;;;;;5068149;28;20011;-75
2024/02/19 01:03:59;;;;;;;;;;;;;;;;;;5069139;28;20351;-74
2024/02/19 01:06:25;;;;;;;;;;;;;;;;;;5072762;28;19913;-75
2024/02/19 01:08:50;;;;;;;;;;;;;;;;;;5067590;28;19916;-74
2024/02/19 01:11:15;;;;;;;;;;;;;;;;;;5066921;28;19912;-74
2024/02/19 01:13:41;;;;;;;;;;;;;;;;;;5070121;28;19912;-74
2024/02/19 01:16:08;;;;;;;;;;;;;;;;;;5068749;28;19961;-75
2024/02/19 01:18:33;;;;;;;;;;;;;;;;;;5068777;28;19921;-74
2024/02/19 01:20:58;;;;;;;;;;;;;;;;;;5068540;28;19936;-74
2024/02/19 01:23:23;;;;;;;;;;;;;;;;;;5068563;28;19916;-74
2024/02/19 01:25:48;;;;;;;;;;;;;;;;;;5068590;28;19920;-74
2024/02/19 01:28:14;;;;;;;;;;;;;;;;;;5065531;28;20026;-74
2024/02/19 01:30:39;;;;;;;;;;;;;;;;;;5068222;28;19916;-74
2024/02/19 01:33:05;;;;;;;;;;;;;;;;;;5069811;28;19913;-74
2024/02/19 01:35:30;;;;;;;;;;;;;;;;;;5068419;28;19912;-74
2024/02/19 01:37:55;;;;;;;;;;;;;;;;;;5068058;28;19936;-74
2024/02/19 01:40:20;;;;;;;;;;;;;;;;;;5071124;28;20019;-74
2024/02/19 01:42:46;;;;;;;;;;;;;;;;;;5067803;28;19928;-74
2024/02/19 01:45:11;;;;;;;;;;;;;;;;;;5066294;28;19913;-74
2024/02/19 01:47:36;;;;;;;;;;;;;;;;;;5069309;28;19921;-74
2024/02/19 01:50:02;;;;;;;;;;;;;;;;;;5068513;28;20003;-74
2024/02/19 01:52:27;;;;;;;;;;;;;;;;;;5068549;28;19942;-74
2024/02/19 01:54:52;;;;;;;;;;;;;;;;;;5070211;28;19943;-74
2024/02/19 01:57:17;;;;;;;;;;;;;;;;;;5064016;28;20258;-74
2024/02/19 01:59:42;;;;;;;;;;;;;;;;;;5068297;28;19971;-74
2024/02/19 02:02:07;;;;;;;;;;;;;;;;;;5067908;28;19913;-74
2024/02/19 02:04:32;;;;;;;;;;;;;;;;;;5068098;28;19966;-74
2024/02/19 02:06:57;;;;;;;;;;;;;;;;;;5067550;28;19966;-74
2024/02/19 02:09:23;;;;;;;;;;;;;;;;;;5067680;28;19922;-74
2024/02/19 02:11:48;;;;;;;;;;;;;;;;;;5074447;28;19970;-74
2024/02/19 02:14:13;;;;;;;;;;;;;;;;;;5074961;28;20018;-75
2024/02/19 02:16:38;;;;;;;;;;;;;;;;;;5075418;28;19912;-75
2024/02/19 02:19:03;;;;;;;;;;;;;;;;;;5075153;28;19928;-74
2024/02/19 02:21:29;;;;;;;;;;;;;;;;;;5073003;28;20276;-74
2024/02/19 02:23:55;;;;;;;;;;;;;;;;;;5069344;28;20000;-75
2024/02/19 02:26:20;;;;;;;;;;;;;;;;;;5053089;28;20394;-75
2024/02/19 02:28:45;;;;;;;;;;;;;;;;;;5074484;28;19970;-75
2024/02/19 02:31:10;;;;;;;;;;;;;;;;;;5074701;28;20368;-75
2024/02/19 02:33:35;;;;;;;;;;;;;;;;;;5078536;28;20011;-74
2024/02/19 02:36:00;;;;;;;;;;;;;;;;;;5074187;28;20348;-74
2024/02/19 02:38:25;;;;;;;;;;;;;;;;;;5074812;28;19981;-75
2024/02/19 02:40:53;;;;;;;;;;;;;;;;;;5078541;28;20295;-75
2024/02/19 02:43:18;;;;;;;;;;;;;;;;;;5074822;28;19954;-75
2024/02/19 02:45:43;;;;;;;;;;;;;;;;;;5075131;28;20005;-75
2024/02/19 02:48:08;;;;;;;;;;;;;;;;;;5056303;28;19927;-75
2024/02/19 02:50:33;;;;;;;;;;;;;;;;;;5075869;28;19922;-75
2024/02/19 02:52:58;;;;;;;;;;;;;;;;;;5074651;28;19912;-75
2024/02/19 02:55:24;;;;;;;;;;;;;;;;;;5077349;28;20003;-75
2024/02/19 02:57:49;;;;;;;;;;;;;;;;;;5074234;28;20292;-74
2024/02/19 03:00:14;;;;;;;;;;;;;;;;;;5072847;28;20015;-74
2024/02/19 03:02:39;;;;;;;;;;;;;;;;;;5077740;28;19923;-74
2024/02/19 03:05:04;;;;;;;;;;;;;;;;;;5074012;28;19927;-74
2024/02/19 03:07:29;;;;;;;;;;;;;;;;;;5055496;28;19916;-74
2024/02/19 03:09:56;;;;;;;;;;;;;;;;;;5074159;28;19919;-76
2024/02/19 03:12:21;;;;;;;;;;;;;;;;;;5076133;28;20364;-75
2024/02/19 03:14:46;;;;;;;;;;;;;;;;;;5074104;28;19913;-74
2024/02/19 03:17:11;;;;;;;;;;;;;;;;;;5074280;28;19916;-75
2024/02/19 03:19:36;;;;;;;;;;;;;;;;;;5072840;28;20398;-74
2024/02/19 03:22:04;;;;;;;;;;;;;;;;;;5071225;28;19913;-75
2024/02/19 03:24:29;;;;;;;;;;;;;;;;;;5074322;28;19912;-75
2024/02/19 03:26:57;;;;;;;;;;;;;;;;;;5069370;28;19912;-75
2024/02/19 03:29:22;;;;;;;;;;;;;;;;;;5070747;28;19916;-74
2024/02/19 03:31:47;;;;;;;;;;;;;;;;;;5070850;28;19977;-75
2024/02/19 03:34:13;;;;;;;;;;;;;;;;;;5071317;28;19920;-74
2024/02/19 03:36:38;;;;;;;;;;;;;;;;;;5071130;28;19918;-75
2024/02/19 03:39:04;;;;;;;;;;;;;;;;;;5066855;28;19916;-74
2024/02/19 03:41:29;;;;;;;;;;;;;;;;;;5072030;28;19925;-75
2024/02/19 03:43:54;;;;;;;;;;;;;;;;;;5070734;28;19912;-75
2024/02/19 03:46:19;;;;;;;;;;;;;;;;;;5066509;28;19913;-75
2024/02/19 03:48:44;;;;;;;;;;;;;;;;;;5070267;28;19916;-74
2024/02/19 03:51:10;;;;;;;;;;;;;;;;;;5069269;28;19912;-75
2024/02/19 03:53:35;;;;;;;;;;;;;;;;;;5070574;28;20003;-75
2024/02/19 03:56:01;;;;;;;;;;;;;;;;;;5072675;28;19967;-74
2024/02/19 03:58:26;;;;;;;;;;;;;;;;;;5070339;28;19916;-74
2024/02/19 04:00:51;;;;;;;;;;;;;;;;;;5070076;28;19919;-75
2024/02/19 04:03:17;;;;;;;;;;;;;;;;;;5073442;28;19957;-75
2024/02/19 04:05:42;;;;;;;;;;;;;;;;;;5072892;28;20070;-75
2024/02/19 04:08:07;;;;;;;;;;;;;;;;;;5070226;28;20075;-75
2024/02/19 04:10:32;;;;;;;;;;;;;;;;;;5070570;28;19916;-75
2024/02/19 04:12:57;;;;;;;;;;;;;;;;;;5070074;28;19912;-75
2024/02/19 04:15:22;;;;;;;;;;;;;;;;;;5067573;28;19999;-75
2024/02/19 04:17:48;;;;;;;;;;;;;;;;;;5065883;28;19912;-75
2024/02/19 04:20:13;;;;;;;;;;;;;;;;;;5068389;28;19913;-75
2024/02/19 04:22:38;;;;;;;;;;;;;;;;;;5069416;28;19917;-75
2024/02/19 04:25:03;;;;;;;;;;;;;;;;;;5070064;28;19913;-75
2024/02/19 04:27:29;;;;;;;;;;;;;;;;;;5069918;28;19913;-75
2024/02/19 04:29:54;;;;;;;;;;;;;;;;;;5069984;28;20018;-75
2024/02/19 04:32:19;;;;;;;;;;;;;;;;;;5069188;28;19919;-75
2024/02/19 04:34:44;;;;;;;;;;;;;;;;;;5068759;28;19981;-75
2024/02/19 04:37:09;;;;;;;;;;;;;;;;;;5069758;28;19961;-75
2024/02/19 04:39:34;;;;;;;;;;;;;;;;;;5072463;28;19912;-75
2024/02/19 04:41:59;;;;;;;;;;;;;;;;;;5069811;28;19925;-75
2024/02/19 04:44:24;;;;;;;;;;;;;;;;;;5051354;28;19973;-75
2024/02/19 04:46:50;;;;;;;;;;;;;;;;;;5054952;28;19955;-75
2024/02/19 04:49:15;;;;;;;;;;;;;;;;;;5069169;28;19927;-76
2024/02/19 04:51:40;;;;;;;;;;;;;;;;;;5069979;28;19915;-75
2024/02/19 04:54:05;;;;;;;;;;;;;;;;;;5069206;28;19920;-76
2024/02/19 04:56:30;;;;;;;;;;;;;;;;;;5071519;28;19999;-75
2024/02/19 04:58:56;;;;;;;;;;;;;;;;;;5069116;28;19913;-75
2024/02/19 05:01:21;;;;;;;;;;;;;;;;;;5072097;28;19909;-76
2024/02/19 05:03:48;;;;;;;;;;;;;;;;;;5068137;28;19924;-74
2024/02/19 05:06:13;;;;;;;;;;;;;;;;;;5067430;28;21272;-74
2024/02/19 05:08:38;;;;;;;;;;;;;;;;;;5068917;28;20605;-74
2024/02/19 05:11:04;;;;;;;;;;;;;;;;;;5070523;28;19919;-76
2024/02/19 05:13:29;;;;;;;;;;;;;;;;;;5068267;28;19948;-75
2024/02/19 05:15:56;;;;;;;;;;;;;;;;;;5067429;28;20460;-75
2024/02/19 05:18:21;;;;;;;;;;;;;;;;;;5053954;28;19909;-76
2024/02/19 05:20:46;;;;;;;;;;;;;;;;;;5067714;28;19916;-76
2024/02/19 05:23:12;;;;;;;;;;;;;;;;;;5068881;28;19912;-76
2024/02/19 05:25:37;;;;;;;;;;;;;;;;;;5068990;28;21280;-76
2024/02/19 05:28:02;;;;;;;;;;;;;;;;;;5067660;28;19994;-76
2024/02/19 05:30:28;;;;;;;;;;;;;;;;;;5068649;28;19935;-76
2024/02/19 05:32:53;;;;;;;;;;;;;;;;;;5068439;28;19916;-76
2024/02/19 05:35:18;;;;;;;;;;;;;;;;;;5068648;28;19958;-75
2024/02/19 05:37:43;;;;;;;;;;;;;;;;;;5068064;28;19985;-76
2024/02/19 05:40:09;;;;;;;;;;;;;;;;;;5067947;28;19916;-75
2024/02/19 05:42:34;;;;;;;;;;;;;;;;;;5067194;28;20279;-75
2024/02/19 05:44:59;;;;;;;;;;;;;;;;;;5068651;28;20416;-75
2024/02/19 05:47:24;;;;;;;;;;;;;;;;;;5065889;28;19919;-75
2024/02/19 05:49:49;;;;;;;;;;;;;;;;;;5067317;28;19916;-75
2024/02/19 05:52:14;;;;;;;;;;;;;;;;;;5049168;28;19940;-75
2024/02/19 05:54:40;;;;;;;;;;;;;;;;;;5066137;28;19920;-75
2024/02/19 05:57:06;;;;;;;;;;;;;;;;;;5067690;28;19920;-75
2024/02/19 05:59:31;;;;;;;;;;;;;;;;;;5066307;28;19923;-76
2024/02/19 06:01:57;;;;;;;;;;;;;;;;;;5066496;28;19912;-76
2024/02/19 06:04:22;;;;;;;;;;;;;;;;;;5067258;28;20090;-75
2024/02/19 06:06:47;;;;;;;;;;;;;;;;;;5049763;28;19985;-75
2024/02/19 06:09:12;;;;;;;;;;;;;;;;;;5067794;28;20001;-76
2024/02/19 06:11:37;;;;;;;;;;;;;;;;;;5063280;28;19923;-75
2024/02/19 06:14:03;;;;;;;;;;;;;;;;;;5069063;28;19923;-76
2024/02/19 06:16:28;;;;;;;;;;;;;;;;;;5069079;28;19940;-76
2024/02/19 06:18:53;;;;;;;;;;;;;;;;;;5069779;28;19990;-75
2024/02/19 06:21:18;;;;;;;;;;;;;;;;;;5068299;28;19982;-73
2024/02/19 06:23:43;;;;;;;;;;;;;;;;;;5069290;28;19916;-73
2024/02/19 06:26:09;;;;;;;;;;;;;;;;;;5067584;28;20007;-73
2024/02/19 06:28:34;;;;;;;;;;;;;;;;;;5068117;28;19928;-75
2024/02/19 06:30:59;;;;;;;;;;;;;;;;;;5068855;28;19947;-76
2024/02/19 06:33:24;;;;;;;;;;;;;;;;;;5050796;28;20327;-73
2024/02/19 06:35:49;;;;;;;;;;;;;;;;;;5068718;28;19919;-73
2024/02/19 06:38:14;;;;;;;;;;;;;;;;;;5068315;28;20349;-73
2024/02/19 06:40:40;;;;;;;;;;;;;;;;;;5067172;28;20041;-72
2024/02/19 06:43:05;;;;;;;;;;;;;;;;;;5067042;28;19993;-76
2024/02/19 06:45:30;;;;;;;;;;;;;;;;;;5068814;28;19916;-76
2024/02/19 06:47:55;;;;;;;;;;;;;;;;;;5066911;28;19916;-76
2024/02/19 06:50:20;;;;;;;;;;;;;;;;;;5069298;28;19960;-76
2024/02/19 06:52:45;;;;;;;;;;;;;;;;;;5066066;28;20331;-75
2024/02/19 06:55:11;;;;;;;;;;;;;;;;;;5069722;28;19915;-77
2024/02/19 06:57:36;;;;;;;;;;;;;;;;;;5070092;28;19965;-74
2024/02/19 07:00:01;;;;;;;;;;;;;;;;;;5070994;28;19912;-76
2024/02/19 07:02:26;;;;;;;;;;;;;;;;;;5072778;28;19923;-74
2024/02/19 07:04:51;;;;;;;;;;;;;;;;;;5071904;28;19912;-74
2024/02/19 07:07:16;;;;;;;;;;;;;;;;;;5070853;28;19967;-74
2024/02/19 07:09:42;;;;;;;;;;;;;;;;;;5070950;28;19912;-74
2024/02/19 07:12:07;;;;;;;;;;;;;;;;;;5071705;28;19917;-74
2024/02/19 07:14:32;;;;;;;;;;;;;;;;;;5067586;28;19920;-74
2024/02/19 07:16:57;;;;;;;;;;;;;;;;;;5070438;28;19912;-74
2024/02/19 07:19:22;;;;;;;;;;;;;;;;;;5072004;28;20164;-73
2024/02/19 07:21:48;;;;;;;;;;;;;;;;;;5071191;28;19974;-75
2024/02/19 07:24:13;;;;;;;;;;;;;;;;;;5071467;28;19919;-74
2024/02/19 07:26:38;;;;;;;;;;;;;;;;;;5071767;28;19913;-74
2024/02/19 07:29:03;;;;;;;;;;;;;;;;;;5070096;28;19916;-74
2024/02/19 07:31:28;;;;;;;;;;;;;;;;;;5069434;28;19912;-74
2024/02/19 07:33:55;;;;;;;;;;;;;;;;;;5071179;28;19919;-73
2024/02/19 07:36:20;;;;;;;;;;;;;;;;;;5070171;28;20013;-73
2024/02/19 07:38:45;;;;;;;;;;;;;;;;;;5069231;28;20335;-73
2024/02/19 07:41:10;;;;;;;;;;;;;;;;;;5069834;28;19928;-73
2024/02/19 07:43:35;;;;;;;;;;;;;;;;;;5071064;28;19924;-73
2024/02/19 07:46:00;;;;;;;;;;;;;;;;;;5072390;28;19912;-73
2024/02/19 07:48:26;;;;;;;;;;;;;;;;;;5070466;28;19924;-74
2024/02/19 07:50:51;;;;;;;;;;;;;;;;;;5070655;28;19916;-73
2024/02/19 07:53:16;;;;;;;;;;;;;;;;;;5070261;28;19912;-74
2024/02/19 07:55:41;;;;;;;;;;;;;;;;;;5070263;28;19913;-74
2024/02/19 07:58:06;;;;;;;;;;;;;;;;;;5070388;28;19920;-73
2024/02/19 08:00:31;;;;;;;;;;;;;;;;;;5054527;28;19913;-74
2024/02/19 08:02:56;;;;;;;;;;;;;;;;;;5052620;28;20371;-74
2024/02/19 08:05:21;;;;;;;;;;;;;;;;;;5070639;28;19935;-74
2024/02/19 08:07:46;;;;;;;;;;;;;;;;;;5069335;28;19927;-73
2024/02/19 08:10:12;;;;;;;;;;;;;;;;;;5071213;28;19916;-74
2024/02/19 08:12:37;;;;;;;;;;;;;;;;;;5068983;28;19917;-74
2024/02/19 08:15:04;;;;;;;;;;;;;;;;;;5069078;28;20009;-74
2024/02/19 08:17:29;;;;;;;;;;;;;;;;;;5069596;28;19917;-74
2024/02/19 08:19:54;;;;;;;;;;;;;;;;;;5070691;28;19939;-73
2024/02/19 08:22:19;;;;;;;;;;;;;;;;;;5072142;28;20007;-73
2024/02/19 08:24:45;;;;;;;;;;;;;;;;;;5070503;28;19913;-73
2024/02/19 08:27:10;;;;;;;;;;;;;;;;;;5069987;28;19916;-73
2024/02/19 08:29:35;;;;;;;;;;;;;;;;;;5070175;28;19925;-73
2024/02/19 08:32:01;;;;;;;;;;;;;;;;;;5070763;28;19917;-73
2024/02/19 08:34:26;;;;;;;;;;;;;;;;;;5070224;28;20006;-74
2024/02/19 08:36:52;;;;;;;;;;;;;;;;;;5071209;28;20317;-74
2024/02/19 08:39:17;;;;;;;;;;;;;;;;;;5069806;28;20265;-75
2024/02/19 08:41:42;;;;;;;;;;;;;;;;;;5066436;28;19974;-76
2024/02/19 08:44:07;;;;;;;;;;;;;;;;;;5070530;28;19917;-76
2024/02/19 08:46:32;;;;;;;;;;;;;;;;;;5068893;28;19950;-76
2024/02/19 08:48:57;;;;;;;;;;;;;;;;;;5064289;28;19916;-76
2024/02/19 08:51:22;;;;;;;;;;;;;;;;;;5065343;28;19916;-76
2024/02/19 08:53:47;;;;;;;;;;;;;;;;;;5068965;28;19960;-76
2024/02/19 08:56:13;;;;;;;;;;;;;;;;;;5069187;28;19920;-76
2024/02/19 08:58:38;;;;;;;;;;;;;;;;;;5068645;28;19958;-76
2024/02/19 09:01:06;;;;;;;;;;;;;;;;;;5072042;28;20349;-75
2024/02/19 09:03:31;;;;;;;;;;;;;;;;;;5067780;28;20265;-76
2024/02/19 09:05:56;;;;;;;;;;;;;;;;;;5069289;28;19913;-76
2024/02/19 09:08:21;;;;;;;;;;;;;;;;;;5068296;28;20338;-76
2024/02/19 09:10:46;;;;;;;;;;;;;;;;;;5069426;28;19988;-76
2024/02/19 09:13:11;;;;;;;;;;;;;;;;;;5049791;28;19916;-76
2024/02/19 09:15:37;;;;;;;;;;;;;;;;;;5065949;28;20412;-76
2024/02/19 09:18:02;;;;;;;;;;;;;;;;;;5067777;28;20313;-76
2024/02/19 09:20:27;;;;;;;;;;;;;;;;;;5067208;28;20284;-76
2024/02/19 09:22:52;;;;;;;;;;;;;;;;;;5050932;28;20265;-76
2024/02/19 09:25:17;;;;;;;;;;;;;;;;;;5069253;28;19912;-76
2024/02/19 09:27:43;;;;;;;;;;;;;;;;;;5051305;28;20293;-76
2024/02/19 09:30:08;;;;;;;;;;;;;;;;;;5068470;28;20446;-76
2024/02/19 09:32:33;;;;;;;;;;;;;;;;;;5071036;28;19912;-76
2024/02/19 09:34:58;;;;;;;;;;;;;;;;;;5067809;28;20005;-76
2024/02/19 09:37:26;;;;;;;;;;;;;;;;;;5063753;28;20414;-76
2024/02/19 09:39:58;;;;;;;;;;;;;;;;;;5072801;28;19915;-76
2024/02/19 09:42:23;;;;;;;;;;;;;;;;;;5068132;28;19971;-76
2024/02/19 09:44:48;;;;;;;;;;;;;;;;;;5065751;28;20030;-76
2024/02/19 09:47:13;;;;;;;;;;;;;;;;;;5068613;28;19917;-76
2024/02/19 09:49:38;;;;;;;;;;;;;;;;;;5067870;28;20342;-75
2024/02/19 09:52:03;;;;;;;;;;;;;;;;;;5068572;28;20003;-76
2024/02/19 09:54:29;;;;;;;;;;;;;;;;;;5068938;28;19917;-75
2024/02/19 09:56:56;;;;;;;;;;;;;;;;;;5069092;28;19916;-75
2024/02/19 09:59:21;;;;;;;;;;;;;;;;;;5068832;28;19999;-75
2024/02/19 10:01:46;;;;;;;;;;;;;;;;;;5067880;28;19913;-75
2024/02/19 10:04:14;;;;;;;;;;;;;;;;;;5069508;28;19919;-76
2024/02/19 10:06:39;;;;;;;;;;;;;;;;;;5067353;28;19919;-75
2024/02/19 10:09:06;;;;;;;;;;;;;;;;;;5068377;28;19916;-75
2024/02/19 10:11:32;;;;;;;;;;;;;;;;;;5049504;28;19912;-75
2024/02/19 10:13:57;;;;;;;;;;;;;;;;;;5064898;28;19989;-75
2024/02/19 10:16:22;;;;;;;;;;;;;;;;;;5068057;28;19917;-76
2024/02/19 10:18:47;;;;;;;;;;;;;;;;;;5068033;28;19999;-75
2024/02/19 10:21:12;;;;;;;;;;;;;;;;;;5068689;28;19921;-75
2024/02/19 10:23:37;;;;;;;;;;;;;;;;;;5067288;28;20443;-75
2024/02/19 10:26:03;;;;;;;;;;;;;;;;;;5068862;28;20025;-75
2024/02/19 10:28:30;;;;;;;;;;;;;;;;;;5067717;28;20402;-75
2024/02/19 10:30:55;;;;;;;;;;;;;;;;;;5070257;28;20540;-76
2024/02/19 10:33:21;;;;;;;;;;;;;;;;;;5071490;28;19916;-75
2024/02/19 10:35:46;;;;;;;;;;;;;;;;;;5072659;28;19920;-76
2024/02/19 10:38:11;;;;;;;;;;;;;;;;;;5072134;28;19916;-75
2024/02/19 10:40:37;;;;;;;;;;;;;;;;;;5072002;28;20025;-76
2024/02/19 10:43:02;;;;;;;;;;;;;;;;;;5075675;28;20029;-75
2024/02/19 10:45:28;;;;;;;;;;;;;;;;;;5072208;28;20296;-75
2024/02/19 10:47:53;;;;;;;;;;;;;;;;;;5070603;28;19964;-75
2024/02/19 10:50:19;;;;;;;;;;;;;;;;;;5069073;28;19912;-75
2024/02/19 10:52:44;;;;;;;;;;;;;;;;;;5071930;28;19913;-75
2024/02/19 10:55:10;;;;;;;;;;;;;;;;;;5052244;28;19916;-75
2024/02/19 10:57:35;;;;;;;;;;;;;;;;;;5075919;28;19940;-76
2024/02/19 11:00:00;;;;;;;;;;;;;;;;;;5071141;28;20295;-75
2024/02/19 11:02:26;;;;;;;;;;;;;;;;;;5073137;28;19938;-75
2024/02/19 11:04:51;;;;;;;;;;;;;;;;;;5067473;28;20456;-77
2024/02/19 11:07:16;;;;;;;;;;;;;;;;;;5069687;28;19923;-77
2024/02/19 11:09:41;;;;;;;;;;;;;;;;;;5072673;28;19954;-76
2024/02/19 11:12:06;;;;;;;;;;;;;;;;;;5071082;28;20426;-76
2024/02/19 11:14:32;;;;;;;;;;;;;;;;;;5071571;28;20453;-77
2024/02/19 11:16:57;;;;;;;;;;;;;;;;;;5070403;28;19920;-76
2024/02/19 11:19:22;;;;;;;;;;;;;;;;;;5069198;28;20007;-77
2024/02/19 11:21:48;;;;;;;;;;;;;;;;;;5070469;28;20527;-77
2024/02/19 11:24:13;;;;;;;;;;;;;;;;;;5073033;28;20396;-76
2024/02/19 11:26:38;;;;;;;;;;;;;;;;;;5066160;28;19916;-77
2024/02/19 11:29:03;;;;;;;;;;;;;;;;;;5071582;28;20011;-76
2024/02/19 11:31:29;;;;;;;;;;;;;;;;;;5070607;28;19912;-76
2024/02/19 11:33:58;;;;;;;;;;;;;;;;;;5069648;28;19912;-77
2024/02/19 11:36:23;;;;;;;;;;;;;;;;;;5070779;28;20015;-77
2024/02/19 11:38:48;;;;;;;;;;;;;;;;;;5070647;28;20019;-77
2024/02/19 11:41:13;;;;;;;;;;;;;;;;;;5066774;28;21174;-77
2024/02/19 11:43:38;;;;;;;;;;;;;;;;;;5070311;28;19920;-77
2024/02/19 11:46:03;;;;;;;;;;;;;;;;;;5071020;28;19912;-77
2024/02/19 11:48:29;;;;;;;;;;;;;;;;;;5070764;28;19916;-76
2024/02/19 11:50:54;;;;;;;;;;;;;;;;;;5068724;28;19912;-76
2024/02/19 11:53:20;;;;;;;;;;;;;;;;;;5070477;28;20556;-75
2024/02/19 11:55:45;;;;;;;;;;;;;;;;;;5067325;28;19959;-76
2024/02/19 11:58:10;;;;;;;;;;;;;;;;;;5070691;28;19913;-76
2024/02/19 12:00:35;;;;;;;;;;;;;;;;;;5068244;28;20133;-76
2024/02/19 12:03:02;;;;;;;;;;;;;;;;;;5070755;28;19912;-75
2024/02/19 12:05:27;;;;;;;;;;;;;;;;;;5077109;28;20418;-76
2024/02/19 12:07:52;;;;;;;;;;;;;;;;;;5069315;28;19925;-75
2024/02/19 12:10:17;;;;;;;;;;;;;;;;;;5069164;28;19952;-75
2024/02/19 12:12:43;;;;;;;;;;;;;;;;;;5068939;28;19920;-75
2024/02/19 12:15:08;;;;;;;;;;;;;;;;;;5067774;28;20786;-75
2024/02/19 12:17:33;;;;;;;;;;;;;;;;;;5069849;28;20019;-75
2024/02/19 12:19:58;;;;;;;;;;;;;;;;;;5073931;28;19986;-75
2024/02/19 12:22:24;;;;;;;;;;;;;;;;;;5073937;28;19923;-75
2024/02/19 12:24:52;;;;;;;;;;;;;;;;;;5070029;28;19969;-75
2024/02/19 12:27:17;;;;;;;;;;;;;;;;;;5076513;28;19916;-76
2024/02/19 12:29:42;;;;;;;;;;;;;;;;;;5067936;28;19923;-75
2024/02/19 12:32:07;;;;;;;;;;;;;;;;;;5070789;28;19959;-76
2024/02/19 12:34:33;;;;;;;;;;;;;;;;;;5069982;28;19916;-75
2024/02/19 12:36:58;;;;;;;;;;;;;;;;;;5050473;28;19913;-76
2024/02/19 12:39:25;;;;;;;;;;;;;;;;;;5070051;28;19919;-76
2024/02/19 12:41:50;;;;;;;;;;;;;;;;;;5065935;28;19924;-76
2024/02/19 12:44:15;;;;;;;;;;;;;;;;;;5068258;28;19985;-75
2024/02/19 12:46:41;;;;;;;;;;;;;;;;;;5068961;28;20362;-76
2024/02/19 12:49:06;;;;;;;;;;;;;;;;;;5049230;28;19963;-75
2024/02/19 12:51:35;;;;;;;;;;;;;;;;;;5069626;28;19970;-76
2024/02/19 12:54:01;;;;;;;;;;;;;;;;;;5068277;28;19923;-76
2024/02/19 12:56:26;;;;;;;;;;;;;;;;;;5065161;28;20376;-77
2024/02/19 12:58:51;;;;;;;;;;;;;;;;;;5070997;28;19977;-75
2024/02/19 13:01:16;;;;;;;;;;;;;;;;;;5069348;28;19935;-76
2024/02/19 13:03:43;;;;;;;;;;;;;;;;;;5065336;28;20334;-76
2024/02/19 13:06:12;;;;;;;;;;;;;;;;;;5069160;28;20356;-76
2024/02/19 13:08:38;;;;;;;;;;;;;;;;;;5068985;28;19920;-76
2024/02/19 13:11:03;;;;;;;;;;;;;;;;;;5066032;28;19916;-75
2024/02/19 13:13:28;;;;;;;;;;;;;;;;;;5068877;28;20381;-76
2024/02/19 13:15:53;;;;;;;;;;;;;;;;;;5069529;28;19912;-76
2024/02/19 13:18:19;;;;;;;;;;;;;;;;;;5068770;28;19915;-76
2024/02/19 13:20:44;;;;;;;;;;;;;;;;;;5067713;28;19919;-75
2024/02/19 13:23:10;;;;;;;;;;;;;;;;;;5069461;28;19934;-76
2024/02/19 13:25:35;;;;;;;;;;;;;;;;;;5068965;28;19916;-76
2024/02/19 13:28:00;;;;;;;;;;;;;;;;;;5070769;28;20428;-75
2024/02/19 13:30:25;;;;;;;;;;;;;;;;;;5049598;28;19920;-76
2024/02/19 13:32:50;;;;;;;;;;;;;;;;;;5069253;28;19920;-76
2024/02/19 13:35:17;;;;;;;;;;;;;;;;;;5065938;28;19920;-76
2024/02/19 13:37:42;;;;;;;;;;;;;;;;;;5068786;28;20300;-76
2024/02/19 13:40:09;;;;;;;;;;;;;;;;;;5066443;28;19967;-76
2024/02/19 13:42:34;;;;;;;;;;;;;;;;;;5070108;28;19931;-76
2024/02/19 13:44:59;;;;;;;;;;;;;;;;;;5068413;28;19912;-75
2024/02/19 13:47:25;;;;;;;;;;;;;;;;;;5069361;28;19919;-76
2024/02/19 13:49:50;;;;;;;;;;;;;;;;;;5068348;28;19920;-76
2024/02/19 13:52:15;;;;;;;;;;;;;;;;;;5070282;28;20229;-75
2024/02/19 13:54:40;;;;;;;;;;;;;;;;;;5068321;28;19998;-75
2024/02/19 13:57:05;;;;;;;;;;;;;;;;;;5070313;28;20010;-75
2024/02/19 13:59:30;;;;;;;;;;;;;;;;;;5068525;28;19912;-76
2024/02/19 14:01:56;;;;;;;;;;;;;;;;;;5068455;28;19912;-75
2024/02/19 14:04:21;;;;;;;;;;;;;;;;;;5071023;28;20003;-76
2024/02/19 14:06:46;;;;;;;;;;;;;;;;;;5064955;28;20598;-75
2024/02/19 14:09:11;;;;;;;;;;;;;;;;;;5067190;28;19920;-76
2024/02/19 14:11:37;;;;;;;;;;;;;;;;;;5070794;28;20483;-75
2024/02/19 14:14:04;;;;;;;;;;;;;;;;;;5068578;28;19919;-76
2024/02/19 14:16:30;;;;;;;;;;;;;;;;;;5068152;28;20381;-76
2024/02/19 14:18:55;;;;;;;;;;;;;;;;;;5049638;28;19916;-76
2024/02/19 14:21:20;;;;;;;;;;;;;;;;;;5065958;28;20463;-76
2024/02/19 14:23:45;;;;;;;;;;;;;;;;;;5067426;28;19912;-77
2024/02/19 14:26:10;;;;;;;;;;;;;;;;;;5068594;28;20284;-76
2024/02/19 14:28:36;;;;;;;;;;;;;;;;;;5067575;28;19920;-76
2024/02/19 14:31:01;;;;;;;;;;;;;;;;;;5070391;28;19996;-76
2024/02/19 14:33:26;;;;;;;;;;;;;;;;;;5067924;28;19916;-76
2024/02/19 14:35:51;;;;;;;;;;;;;;;;;;5069187;28;20399;-77
2024/02/19 14:38:16;;;;;;;;;;;;;;;;;;5050135;28;19920;-77
2024/02/19 14:40:43;;;;;;;;;;;;;;;;;;5069418;28;19913;-78
2024/02/19 14:43:08;;;;;;;;;;;;;;;;;;5068134;28;19928;-77
2024/02/19 14:45:33;;;;;;;;;;;;;;;;;;5067645;28;19970;-76
2024/02/19 14:48:00;;;;;;;;;;;;;;;;;;5069429;28;19970;-77
2024/02/19 14:50:37;;;;;;;;;;;;;;;;;;;;;
2024/02/19 14:53:02;;;;;;;;;;;;;;;;;;5064635;28;20291;-78
2024/02/19 14:55:27;;;;;;;;;;;;;;;;;;5071475;28;20431;-75
2024/02/19 14:58:25;;;;;;;;;;;;;;;;;;;;;
2024/02/19 15:00:41;;;;;;;;;;;;;;;;;;5063829;28;19912;-77
2024/02/19 15:03:07;;;;;;;;;;;;;;;;;;5067178;28;19992;-77
2024/02/19 15:05:32;;;;;;;;;;;;;;;;;;5067015;28;19919;-78
2024/02/19 15:07:58;;;;;;;;;;;;;;;;;;5067032;28;19921;-77
2024/02/19 15:10:26;;;;;;;;;;;;;;;;;;5068535;28;19913;-79
2024/02/19 15:13:00;;;;;;;;;;;;;;;;;;5067195;28;19919;-78
2024/02/19 15:15:25;;;;;;;;;;;;;;;;;;5067175;28;20456;-78
2024/02/19 15:17:50;;;;;;;;;;;;;;;;;;5067422;28;20031;-77
2024/02/19 15:20:15;;;;;;;;;;;;;;;;;;5071452;28;19916;-77
2024/02/19 15:22:40;;;;;;;;;;;;;;;;;;5069879;28;19921;-76
2024/02/19 15:25:06;;;;;;;;;;;;;;;;;;5071458;28;19951;-78
2024/02/19 15:27:31;;;;;;;;;;;;;;;;;;5070788;28;19966;-77
2024/02/19 15:29:57;;;;;;;;;;;;;;;;;;5071122;28;20004;-75
2024/02/19 15:32:22;;;;;;;;;;;;;;;;;;5072045;28;19917;-76
2024/02/19 15:34:48;;;;;;;;;;;;;;;;;;5071593;28;19913;-76
2024/02/19 15:37:13;;;;;;;;;;;;;;;;;;5072358;28;19912;-76
2024/02/19 15:39:39;;;;;;;;;;;;;;;;;;5070952;28;19916;-76
2024/02/19 15:42:05;;;;;;;;;;;;;;;;;;5069762;28;19924;-75
2024/02/19 15:44:30;;;;;;;;;;;;;;;;;;5071069;28;19918;-74
2024/02/19 15:46:55;;;;;;;;;;;;;;;;;;5071406;28;19916;-74
2024/02/19 15:49:21;;;;;;;;;;;;;;;;;;5070926;28;19956;-74
2024/02/19 15:51:46;;;;;;;;;;;;;;;;;;5072370;28;19917;-74
2024/02/19 15:54:11;;;;;;;;;;;;;;;;;;5071625;28;19912;-75
2024/02/19 15:56:36;;;;;;;;;;;;;;;;;;5065738;28;20317;-75
2024/02/19 15:59:02;;;;;;;;;;;;;;;;;;5066838;28;19936;-75
2024/02/19 16:01:27;;;;;;;;;;;;;;;;;;5069921;28;19951;-75
2024/02/19 16:03:52;;;;;;;;;;;;;;;;;;5070746;28;19916;-74
2024/02/19 16:06:17;;;;;;;;;;;;;;;;;;5069538;28;19913;-74
2024/02/19 16:08:43;;;;;;;;;;;;;;;;;;5071075;28;20300;-75
2024/02/19 16:11:08;;;;;;;;;;;;;;;;;;5070457;28;19916;-74
2024/02/19 16:13:36;;;;;;;;;;;;;;;;;;5071800;28;20007;-75
2024/02/19 16:16:04;;;;;;;;;;;;;;;;;;5069489;28;20406;-75
2024/02/19 16:18:30;;;;;;;;;;;;;;;;;;5070257;28;19935;-74
2024/02/19 16:20:55;;;;;;;;;;;;;;;;;;5070312;28;19913;-75
2024/02/19 16:23:20;;;;;;;;;;;;;;;;;;5070638;28;20479;-74
2024/02/19 16:25:45;;;;;;;;;;;;;;;;;;5070615;28;20437;-74
2024/02/19 16:28:10;;;;;;;;;;;;;;;;;;5068709;28;19916;-74
2024/02/19 16:30:35;;;;;;;;;;;;;;;;;;5070467;28;19969;-74
2024/02/19 16:33:01;;;;;;;;;;;;;;;;;;5071066;28;20035;-73